createdAt,value
2022-08-28T00:00:30.857Z,4.57
2022-08-28T00:02:58.924Z,4.53
2022-08-28T00:05:31.641Z,4.65
2022-08-28T00:08:00.368Z,4.15
2022-08-28T00:10:28.697Z,5.03
2022-08-28T00:12:57.469Z,4.45
2022-08-28T00:15:33.596Z,4.95
2022-08-28T00:18:03.697Z,4.78
2022-08-28T00:20:33.527Z,4.50
2022-08-28T00:23:01.686Z,4.70
2022-08-28T00:25:30.897Z,4.75
2022-08-28T00:28:08.585Z,5.20
2022-08-28T00:30:43.797Z,4.35
2022-08-28T00:33:18.138Z,5.35
2022-08-28T00:35:47.949Z,4.88
2022-08-28T00:38:19.255Z,4.93
2022-08-28T00:40:52.355Z,4.55
2022-08-28T00:43:33.917Z,4.15
2022-08-28T00:46:09.598Z,4.43
2022-08-28T00:48:38.076Z,4.30
2022-08-28T00:51:25.864Z,5.00
2022-08-28T00:53:58.821Z,4.07
2022-08-28T00:56:29.868Z,5.43
2022-08-28T00:59:03.582Z,5.75
2022-08-28T01:01:31.296Z,5.25
2022-08-28T01:03:58.850Z,5.50
2022-08-28T01:06:26.337Z,5.00
2022-08-28T01:08:54.462Z,5.50
2022-08-28T01:11:21.903Z,5.07
2022-08-28T01:13:51.194Z,5.25
2022-08-28T01:16:22.575Z,5.43
2022-08-28T01:18:55.251Z,5.38
2022-08-28T01:21:58.618Z,5.28
2022-08-28T01:24:27.356Z,5.07
2022-08-28T01:26:54.791Z,5.53
2022-08-28T01:29:24.278Z,5.13
2022-08-28T01:31:51.741Z,5.90
2022-08-28T01:34:19.203Z,5.80
2022-08-28T01:36:48.432Z,5.88
2022-08-28T01:39:22.260Z,5.18
2022-08-28T01:41:54.595Z,5.97
2022-08-28T01:44:26.286Z,4.93
2022-08-28T01:49:29.218Z,5.45
2022-08-28T01:51:58.326Z,5.50
2022-08-28T01:54:28.722Z,5.13
2022-08-28T01:56:56.482Z,5.57
2022-08-28T01:59:24.008Z,5.43
2022-08-28T02:01:52.506Z,5.03
2022-08-28T02:04:19.991Z,5.68
2022-08-28T02:06:53.410Z,5.80
2022-08-28T02:09:20.883Z,5.55
2022-08-28T02:11:48.352Z,5.00
2022-08-28T02:14:16.572Z,5.90
2022-08-28T02:16:44.084Z,5.25
2022-08-28T02:19:12.147Z,5.07
2022-08-28T02:21:40.284Z,4.97
2022-08-28T02:24:08.664Z,5.35
2022-08-28T02:26:36.147Z,5.13
2022-08-28T02:29:04.818Z,4.57
2022-08-28T02:31:32.494Z,4.95
2022-08-28T02:34:01.009Z,4.97
2022-08-28T02:36:29.050Z,5.13
2022-08-28T02:38:57.907Z,4.78
2022-08-28T02:41:26.176Z,5.20
2022-08-28T02:43:54.514Z,4.72
2022-08-28T02:46:21.975Z,4.25
2022-08-28T02:48:50.431Z,4.70
2022-08-28T02:51:19.985Z,4.78
2022-08-28T02:53:47.758Z,4.43
2022-08-28T02:56:15.392Z,4.57
2022-08-28T02:58:44.570Z,4.70
2022-08-28T03:01:14.724Z,4.25
2022-08-28T03:03:43.185Z,4.82
2022-08-28T03:06:12.881Z,4.50
2022-08-28T03:08:43.580Z,4.20
2022-08-28T03:11:12.029Z,4.87
2022-08-28T03:13:39.570Z,4.55
2022-08-28T03:16:07.410Z,4.65
2022-08-28T03:18:35.116Z,4.65
2022-08-28T03:21:03.213Z,4.45
2022-08-28T03:23:31.955Z,4.10
2022-08-28T03:26:04.888Z,4.45
2022-08-28T03:28:40.751Z,3.85
2022-08-28T03:31:12.428Z,5.15
2022-08-28T03:33:42.717Z,4.25
2022-08-28T03:36:13.611Z,4.00
2022-08-28T03:38:41.980Z,4.30
2022-08-28T03:41:17.120Z,4.60
2022-08-28T03:43:45.425Z,3.75
2022-08-28T03:46:20.663Z,4.22
2022-08-28T03:48:48.137Z,4.28
2022-08-28T03:51:27.971Z,4.13
2022-08-28T03:53:59.733Z,4.53
2022-08-28T03:56:30.493Z,5.13
2022-08-28T03:59:02.274Z,4.50
2022-08-28T04:03:57.363Z,3.88
2022-08-28T04:06:25.409Z,4.15
2022-08-28T04:08:52.844Z,4.43
2022-08-28T04:11:20.593Z,4.38
2022-08-28T04:13:48.151Z,4.50
2022-08-28T04:16:19.159Z,4.28
2022-08-28T04:18:49.909Z,4.57
2022-08-28T04:21:23.793Z,3.90
2022-08-28T04:23:51.725Z,5.30
2022-08-28T04:26:23.096Z,4.00
2022-08-28T04:28:52.620Z,4.60
2022-08-28T04:31:31.852Z,4.50
2022-08-28T04:34:06.858Z,4.15
2022-08-28T04:36:35.881Z,4.85
2022-08-28T04:39:08.551Z,4.20
2022-08-28T04:41:38.684Z,4.00
2022-08-28T04:44:07.856Z,4.90
2022-08-28T04:46:37.241Z,4.50
2022-08-28T04:49:05.795Z,4.15
2022-08-28T04:51:33.730Z,3.95
2022-08-28T04:54:03.458Z,4.05
2022-08-28T04:56:31.031Z,4.25
2022-08-28T04:59:01.520Z,4.30
2022-08-28T05:01:29.150Z,4.03
2022-08-28T05:04:02.173Z,3.78
2022-08-28T05:06:33.032Z,3.70
2022-08-28T05:09:03.722Z,3.80
2022-08-28T05:11:34.452Z,3.70
2022-08-28T05:14:09.625Z,4.22
2022-08-28T05:16:52.763Z,3.80
2022-08-28T05:19:21.191Z,3.88
2022-08-28T05:21:48.794Z,3.80
2022-08-28T05:24:18.818Z,4.45
2022-08-28T05:26:47.955Z,4.13
2022-08-28T05:29:17.003Z,4.10
2022-08-28T05:31:46.427Z,4.18
2022-08-28T05:34:15.246Z,3.70
2022-08-28T05:36:42.773Z,3.58
2022-08-28T05:39:11.812Z,4.28
2022-08-28T05:41:44.980Z,4.05
2022-08-28T05:44:16.576Z,3.90
2022-08-28T05:49:18.991Z,3.80
2022-08-28T05:51:47.895Z,4.40
2022-08-28T05:54:16.777Z,3.65
2022-08-28T05:56:46.265Z,3.92
2022-08-28T05:59:15.959Z,3.95
2022-08-28T06:01:49.078Z,4.00
2022-08-28T06:04:24.557Z,4.18
2022-08-28T06:06:52.160Z,3.75
2022-08-28T06:09:29.598Z,4.45
2022-08-28T06:12:01.920Z,3.95
2022-08-28T06:14:31.273Z,4.20
2022-08-28T06:17:04.017Z,3.65
2022-08-28T06:19:37.233Z,4.13
2022-08-28T06:22:07.788Z,4.13
2022-08-28T06:24:36.306Z,3.80
2022-08-28T06:27:04.739Z,4.38
2022-08-28T06:29:32.257Z,3.95
2022-08-28T06:32:04.747Z,4.05
2022-08-28T06:34:32.498Z,4.32
2022-08-28T06:37:00.597Z,3.80
2022-08-28T06:39:28.049Z,4.13
2022-08-28T06:41:55.520Z,4.30
2022-08-28T06:44:23.029Z,3.95
2022-08-28T06:46:54.344Z,3.75
2022-08-28T06:49:22.618Z,3.58
2022-08-28T06:51:50.705Z,4.30
2022-08-28T06:54:22.992Z,3.38
2022-08-28T06:56:52.790Z,2.95
2022-08-28T06:59:20.288Z,3.08
2022-08-28T07:01:48.277Z,3.38
2022-08-28T07:04:15.907Z,3.33
2022-08-28T07:06:53.752Z,2.83
2022-08-28T07:09:24.246Z,2.90
2022-08-28T07:11:52.676Z,2.83
2022-08-28T07:14:20.264Z,3.13
2022-08-28T07:16:47.858Z,2.90
2022-08-28T07:19:15.741Z,2.80
2022-08-28T07:21:45.669Z,2.83
2022-08-28T07:24:16.028Z,3.20
2022-08-28T07:26:45.841Z,2.42
2022-08-28T07:29:14.349Z,2.53
2022-08-28T07:31:48.590Z,2.90
2022-08-28T07:34:21.026Z,2.47
2022-08-28T07:36:51.883Z,2.45
2022-08-28T07:39:19.805Z,3.03
2022-08-28T07:41:47.952Z,2.28
2022-08-28T07:44:36.431Z,2.00
2022-08-28T07:47:06.494Z,2.20
2022-08-28T07:49:36.360Z,2.67
2022-08-28T07:52:06.645Z,2.17
2022-08-28T07:54:36.013Z,2.60
2022-08-28T07:57:05.565Z,2.20
2022-08-28T07:59:36.822Z,2.13
2022-08-28T08:04:33.887Z,1.98
2022-08-28T08:07:03.372Z,2.40
2022-08-28T08:09:30.973Z,1.92
2022-08-28T08:12:00.003Z,2.25
2022-08-28T08:14:28.198Z,2.10
2022-08-28T08:16:55.589Z,2.05
2022-08-28T08:19:23.163Z,1.88
2022-08-28T08:21:54.594Z,1.65
2022-08-28T08:24:28.359Z,2.25
2022-08-28T08:27:00.908Z,2.35
2022-08-28T08:29:36.978Z,2.58
2022-08-28T08:32:10.662Z,1.90
2022-08-28T08:34:42.649Z,2.05
2022-08-28T08:37:11.651Z,2.20
2022-08-28T08:39:42.072Z,1.98
2022-08-28T08:42:25.427Z,1.77
2022-08-28T08:44:56.355Z,1.88
2022-08-28T08:47:51.338Z,1.60
2022-08-28T08:50:25.673Z,1.75
2022-08-28T08:53:21.393Z,1.70
2022-08-28T08:55:53.342Z,1.83
2022-08-28T08:58:45.487Z,1.52
2022-08-28T09:01:28.886Z,2.00
2022-08-28T09:04:16.518Z,1.92
2022-08-28T09:07:19.796Z,1.52
2022-08-28T09:09:57.307Z,1.58
2022-08-28T09:12:34.805Z,1.48
2022-08-28T09:15:17.434Z,1.45
2022-08-28T09:17:53.537Z,1.60
2022-08-28T09:20:32.875Z,1.25
2022-08-28T09:23:02.136Z,1.70
2022-08-28T09:25:51.719Z,2.00
2022-08-28T09:28:40.753Z,1.80
2022-08-28T09:31:31.913Z,1.55
2022-08-28T09:34:31.836Z,1.52
2022-08-28T09:37:02.418Z,1.70
2022-08-28T09:39:33.811Z,1.70
2022-08-28T09:45:24.178Z,1.77
2022-08-28T09:47:56.056Z,1.50
2022-08-28T09:50:37.110Z,1.55
2022-08-28T09:53:10.481Z,1.58
2022-08-28T09:55:56.005Z,1.20
2022-08-28T09:58:35.483Z,1.90
2022-08-28T10:01:19.089Z,1.27
2022-08-28T10:04:17.546Z,1.58
2022-08-28T10:07:09.239Z,1.73
2022-08-28T10:12:50.423Z,1.77
2022-08-28T10:15:59.535Z,1.70
2022-08-28T10:18:48.277Z,1.40
2022-08-28T10:21:26.770Z,1.45
2022-08-28T10:24:29.222Z,1.13
2022-08-28T10:27:43.301Z,2.05
2022-08-28T10:30:19.346Z,1.73
2022-08-28T10:33:25.882Z,1.58
2022-08-28T10:36:33.998Z,1.52
2022-08-28T10:39:45.701Z,1.70
2022-08-28T10:42:30.198Z,1.45
2022-08-28T10:45:14.373Z,1.67
2022-08-28T10:47:50.902Z,1.80
2022-08-28T10:50:41.218Z,2.13
2022-08-28T10:53:23.191Z,1.52
2022-08-28T10:56:02.966Z,1.40
2022-08-28T10:58:37.044Z,1.30
2022-08-28T11:01:28.555Z,1.40
2022-08-28T11:04:01.001Z,1.42
2022-08-28T11:06:31.795Z,1.40
2022-08-28T11:09:24.789Z,1.52
2022-08-28T11:12:10.210Z,1.40
2022-08-28T11:14:48.497Z,1.40
2022-08-28T11:17:22.159Z,1.40
2022-08-28T11:20:25.028Z,1.67
2022-08-28T11:23:10.444Z,1.48
2022-08-28T11:25:54.725Z,1.20
2022-08-28T11:28:24.787Z,1.30
2022-08-28T11:31:05.441Z,1.00
2022-08-28T11:33:50.510Z,1.30
2022-08-28T11:36:40.718Z,1.75
2022-08-28T11:39:14.113Z,1.60
2022-08-28T11:42:36.221Z,1.23
2022-08-28T11:45:04.658Z,1.30
2022-08-28T11:47:43.629Z,1.40
2022-08-28T11:50:18.270Z,1.60
2022-08-28T11:53:24.960Z,1.20
2022-08-28T11:56:38.524Z,1.30
2022-08-28T11:59:45.199Z,1.40
2022-08-28T12:02:44.175Z,1.52
2022-08-28T12:05:14.575Z,1.48
2022-08-28T12:07:49.417Z,1.35
2022-08-28T12:10:22.922Z,1.10
2022-08-28T12:12:54.110Z,1.40
2022-08-28T12:15:27.586Z,1.00
2022-08-28T12:18:11.748Z,1.40
2022-08-28T12:21:01.283Z,1.48
2022-08-28T12:23:37.804Z,1.13
2022-08-28T12:26:13.249Z,1.58
2022-08-28T12:28:52.576Z,1.10
2022-08-28T12:31:47.500Z,1.17
2022-08-28T12:34:43.570Z,1.13
2022-08-28T12:37:51.856Z,1.40
2022-08-28T12:40:52.940Z,1.30
2022-08-28T12:43:46.290Z,1.30
2022-08-28T12:46:28.859Z,1.27
2022-08-28T12:49:03.177Z,1.23
2022-08-28T12:51:37.531Z,1.30
2022-08-28T12:54:08.728Z,1.70
2022-08-28T12:56:38.563Z,1.48
2022-08-28T12:59:37.822Z,1.30
2022-08-28T13:02:08.221Z,1.20
2022-08-28T13:05:09.543Z,1.50
2022-08-28T13:07:51.833Z,1.20
2022-08-28T13:10:29.766Z,1.55
2022-08-28T13:13:18.794Z,1.30
2022-08-28T13:16:00.716Z,1.35
2022-08-28T13:19:10.696Z,1.10
2022-08-28T13:22:00.383Z,1.25
2022-08-28T13:24:44.603Z,1.13
2022-08-28T13:27:12.091Z,1.05
2022-08-28T13:30:01.189Z,0.90
2022-08-28T13:32:33.165Z,1.33
2022-08-28T13:35:22.311Z,1.23
2022-08-28T13:37:54.255Z,1.20
2022-08-28T13:43:17.051Z,1.10
2022-08-28T13:45:48.659Z,1.40
2022-08-28T13:48:21.526Z,1.20
2022-08-28T13:51:11.994Z,1.33
2022-08-28T13:53:43.947Z,1.40
2022-08-28T13:56:12.259Z,1.45
2022-08-28T13:58:39.720Z,1.50
2022-08-28T14:01:07.393Z,1.30
2022-08-28T14:03:38.824Z,1.30
2022-08-28T14:06:14.735Z,1.15
2022-08-28T14:08:44.489Z,1.50
2022-08-28T14:11:15.167Z,1.20
2022-08-28T14:13:46.948Z,1.35
2022-08-28T14:16:25.916Z,1.05
2022-08-28T14:18:53.877Z,1.40
2022-08-28T14:21:24.626Z,1.23
2022-08-28T14:23:52.200Z,1.88
2022-08-28T14:26:26.465Z,1.90
2022-08-28T14:28:54.273Z,1.80
2022-08-28T14:31:25.543Z,1.80
2022-08-28T14:33:54.995Z,1.50
2022-08-28T14:36:27.810Z,1.85
2022-08-28T14:39:01.779Z,1.25
2022-08-28T14:41:34.622Z,1.33
2022-08-28T14:44:04.886Z,0.90
2022-08-28T14:46:37.676Z,1.90
2022-08-28T14:49:09.697Z,1.05
2022-08-28T14:51:41.473Z,1.33
2022-08-28T14:54:12.125Z,1.10
2022-08-28T14:56:43.124Z,1.27
2022-08-28T14:59:19.498Z,1.20
2022-08-28T15:01:50.403Z,1.50
2022-08-28T15:04:22.813Z,1.13
2022-08-28T15:06:58.607Z,1.55
2022-08-28T15:09:26.443Z,1.38
2022-08-28T15:11:55.103Z,1.10
2022-08-28T15:14:22.565Z,1.30
2022-08-28T15:16:50.145Z,1.40
2022-08-28T15:19:18.603Z,1.48
2022-08-28T15:21:53.855Z,1.08
2022-08-28T15:24:27.953Z,1.33
2022-08-28T15:26:56.864Z,1.30
2022-08-28T15:29:24.412Z,1.42
2022-08-28T15:31:52.862Z,1.67
2022-08-28T15:34:24.962Z,1.58
2022-08-28T15:36:55.741Z,2.20
2022-08-28T15:39:45.639Z,1.80
2022-08-28T15:42:14.610Z,1.85
2022-08-28T15:44:43.924Z,1.65
2022-08-28T15:47:13.758Z,1.80
2022-08-28T15:49:46.721Z,1.48
2022-08-28T15:52:18.858Z,1.63
2022-08-28T15:54:48.006Z,1.50
2022-08-28T15:57:16.035Z,1.35
2022-08-28T15:59:49.815Z,1.40
2022-08-28T16:02:21.905Z,1.50
2022-08-28T16:07:20.750Z,1.65
2022-08-28T16:09:48.468Z,1.17
2022-08-28T16:12:16.821Z,1.58
2022-08-28T16:14:44.786Z,2.20
2022-08-28T16:17:12.522Z,2.20
2022-08-28T16:19:40.923Z,2.63
2022-08-28T16:22:11.045Z,2.13
2022-08-28T16:24:39.091Z,2.67
2022-08-28T16:27:09.525Z,2.50
2022-08-28T16:29:38.929Z,2.10
2022-08-28T16:32:07.012Z,1.60
2022-08-28T16:34:35.258Z,1.30
2022-08-28T16:37:04.643Z,1.40
2022-08-28T16:39:32.198Z,2.30
2022-08-28T16:41:59.744Z,1.80
2022-08-28T16:44:27.373Z,2.42
2022-08-28T16:46:55.955Z,2.92
2022-08-28T16:49:24.734Z,1.83
2022-08-28T16:51:52.531Z,1.60
2022-08-28T16:54:21.711Z,1.85
2022-08-28T16:56:49.311Z,2.22
2022-08-28T16:59:18.209Z,1.85
2022-08-28T17:01:47.342Z,1.50
2022-08-28T17:04:21.093Z,1.75
2022-08-28T17:06:48.924Z,1.80
2022-08-28T17:09:16.472Z,2.00
2022-08-28T17:11:45.564Z,2.05
2022-08-28T17:14:21.659Z,2.10
2022-08-28T17:16:50.589Z,2.00
2022-08-28T17:19:19.407Z,1.90
2022-08-28T17:22:05.285Z,2.13
2022-08-28T17:24:32.850Z,2.22
2022-08-28T17:27:05.251Z,2.25
2022-08-28T17:29:36.293Z,2.42
2022-08-28T17:32:05.731Z,2.10
2022-08-28T17:34:33.553Z,2.45
2022-08-28T17:37:01.485Z,2.33
2022-08-28T17:39:29.657Z,2.08
2022-08-28T17:41:57.614Z,2.70
2022-08-28T17:44:25.549Z,2.25
2022-08-28T17:46:54.055Z,2.53
2022-08-28T17:49:22.501Z,2.60
2022-08-28T17:51:51.100Z,2.50
2022-08-28T17:54:24.043Z,2.67
2022-08-28T17:56:54.344Z,2.90
2022-08-28T17:59:24.409Z,3.15
2022-08-28T18:01:53.403Z,2.92
2022-08-28T18:04:24.389Z,2.95
2022-08-28T18:06:54.484Z,2.83
2022-08-28T18:09:24.179Z,2.30
2022-08-28T18:11:52.657Z,2.20
2022-08-28T18:14:20.893Z,2.17
2022-08-28T18:16:48.481Z,2.00
2022-08-28T18:19:16.492Z,2.05
2022-08-28T18:21:44.905Z,1.92
2022-08-28T18:24:13.135Z,1.80
2022-08-28T18:26:42.996Z,1.90
2022-08-28T18:29:11.815Z,2.25
2022-08-28T18:31:40.885Z,1.70
2022-08-28T18:34:09.871Z,1.80
2022-08-28T18:36:39.890Z,1.85
2022-08-28T18:39:08.224Z,1.92
2022-08-28T18:41:43.957Z,1.90
2022-08-28T18:44:15.257Z,1.80
2022-08-28T18:46:44.088Z,2.00
2022-08-28T18:49:12.616Z,1.85
2022-08-28T18:51:43.402Z,1.75
2022-08-28T18:54:14.525Z,1.83
2022-08-28T18:56:46.025Z,1.90
2022-08-28T18:59:15.915Z,1.63
2022-08-28T19:01:43.585Z,2.67
2022-08-28T19:04:11.152Z,1.80
2022-08-28T19:06:41.373Z,2.20
2022-08-28T19:09:09.011Z,2.03
2022-08-28T19:11:39.223Z,2.20
2022-08-28T19:14:08.432Z,1.80
2022-08-28T19:16:35.893Z,1.70
2022-08-28T19:19:04.560Z,1.95
2022-08-28T19:21:32.567Z,2.45
2022-08-28T19:24:00.367Z,2.17
2022-08-28T19:26:28.625Z,1.73
2022-08-28T19:28:57.015Z,1.77
2022-08-28T19:31:27.022Z,1.60
2022-08-28T19:33:55.441Z,1.73
2022-08-28T19:36:22.978Z,2.17
2022-08-28T19:38:50.712Z,2.22
2022-08-28T19:41:18.220Z,2.00
2022-08-28T19:43:45.661Z,2.58
2022-08-28T19:46:19.240Z,2.45
2022-08-28T19:48:50.740Z,2.80
2022-08-28T19:51:23.077Z,3.50
2022-08-28T19:53:57.833Z,2.50
2022-08-28T19:56:28.731Z,2.88
2022-08-28T19:58:59.103Z,2.90
2022-08-28T20:01:29.973Z,2.35
2022-08-28T20:03:59.178Z,2.88
2022-08-28T20:06:30.233Z,2.72
2022-08-28T20:08:57.955Z,3.03
2022-08-28T20:11:30.247Z,2.10
2022-08-28T20:14:05.837Z,2.20
2022-08-28T20:16:42.346Z,2.25
2022-08-28T20:19:12.445Z,2.42
2022-08-28T20:21:47.020Z,2.47
2022-08-28T20:24:18.469Z,2.40
2022-08-28T20:26:46.732Z,2.25
2022-08-28T20:29:15.578Z,2.28
2022-08-28T20:31:47.891Z,1.92
2022-08-28T20:34:18.575Z,2.10
2022-08-28T20:36:46.382Z,2.13
2022-08-28T20:39:15.444Z,1.88
2022-08-28T20:41:44.365Z,1.90
2022-08-28T20:44:16.157Z,2.33
2022-08-28T20:46:43.860Z,2.00
2022-08-28T20:49:17.001Z,2.22
2022-08-28T20:51:57.659Z,1.92
2022-08-28T20:54:36.912Z,2.17
2022-08-28T20:57:12.202Z,1.90
2022-08-28T20:59:42.511Z,2.33
2022-08-28T21:02:23.831Z,2.40
2022-08-28T21:04:52.502Z,2.72
2022-08-28T21:07:23.298Z,2.30
2022-08-28T21:10:05.396Z,2.87
2022-08-28T21:12:39.953Z,2.40
2022-08-28T21:15:12.497Z,2.90
2022-08-28T21:17:40.979Z,2.72
2022-08-28T21:20:13.767Z,2.53
2022-08-28T21:22:42.242Z,2.88
2022-08-28T21:25:11.359Z,3.08
2022-08-28T21:27:39.334Z,3.05
2022-08-28T21:30:09.605Z,3.20
2022-08-28T21:32:37.510Z,2.70
2022-08-28T21:35:10.915Z,3.38
2022-08-28T21:37:41.334Z,2.47
2022-08-28T21:40:15.428Z,3.08
2022-08-28T21:42:43.748Z,3.10
2022-08-28T21:45:12.563Z,2.67
2022-08-28T21:47:42.175Z,3.20
2022-08-28T21:50:11.472Z,3.28
2022-08-28T21:52:40.547Z,2.92
2022-08-28T21:55:13.370Z,2.70
2022-08-28T21:57:41.356Z,3.20
2022-08-28T22:00:15.807Z,3.17
2022-08-28T22:02:44.075Z,4.00
2022-08-28T22:05:11.777Z,3.30
2022-08-28T22:07:40.343Z,3.17
2022-08-28T22:10:09.411Z,3.25
2022-08-28T22:12:36.946Z,2.85
2022-08-28T22:15:05.344Z,3.13
2022-08-28T22:17:32.798Z,3.22
2022-08-28T22:20:00.267Z,2.95
2022-08-28T22:22:46.411Z,2.50
2022-08-28T22:25:14.363Z,2.88
2022-08-28T22:27:41.775Z,3.22
2022-08-28T22:30:10.063Z,2.90
2022-08-28T22:32:37.485Z,2.50
2022-08-28T22:35:05.864Z,2.63
2022-08-28T22:37:35.789Z,3.03
2022-08-28T22:40:09.369Z,2.90
2022-08-28T22:42:42.519Z,2.78
2022-08-28T22:45:10.736Z,3.00
2022-08-28T22:47:38.486Z,2.83
2022-08-28T22:50:07.484Z,3.25
2022-08-28T22:52:35.157Z,2.50
2022-08-28T22:55:03.705Z,2.65
2022-08-28T23:00:03.666Z,2.75
2022-08-28T23:02:31.251Z,2.83
2022-08-28T23:04:58.815Z,2.50
2022-08-28T23:07:26.318Z,2.50
2022-08-28T23:09:53.780Z,3.10
2022-08-28T23:12:21.258Z,2.60
2022-08-28T23:14:48.975Z,2.90
2022-08-28T23:17:18.719Z,2.75
2022-08-28T23:19:48.060Z,3.10
2022-08-28T23:22:16.113Z,2.78
2022-08-28T23:24:46.163Z,2.97
2022-08-28T23:27:34.865Z,3.20
2022-08-28T23:30:01.087Z,3.00
2022-08-28T23:32:28.608Z,3.10
2022-08-28T23:34:56.000Z,3.28
2022-08-28T23:37:23.490Z,3.22
2022-08-28T23:39:50.913Z,2.70
2022-08-28T23:42:18.456Z,2.72
2022-08-28T23:44:47.254Z,2.97
2022-08-28T23:47:14.976Z,2.97
2022-08-28T23:49:43.046Z,3.10
2022-08-28T23:52:10.540Z,3.30
2022-08-28T23:54:39.883Z,3.30
2022-08-28T23:57:09.022Z,3.22
2022-08-28T23:59:39.577Z,3.20
